createdAt,value
2023-02-21T00:00:35.038Z,99106.78
2023-02-21T00:03:20.603Z,99109.28
2023-02-21T00:06:05.834Z,99109.63
2023-02-21T00:08:51.355Z,99118.34
2023-02-21T00:11:36.499Z,99112.16
2023-02-21T00:14:21.851Z,99111.28
2023-02-21T00:17:08.550Z,99103.44
2023-02-21T00:19:54.106Z,99081.25
2023-02-21T00:22:39.170Z,99127.34
2023-02-21T00:25:24.890Z,99113.00
2023-02-21T00:28:09.954Z,99102.28
2023-02-21T00:30:55.399Z,99113.00
2023-02-21T00:33:42.534Z,99132.72
2023-02-21T00:36:28.176Z,99122.84
2023-02-21T00:39:13.860Z,99113.00
2023-02-21T00:41:59.034Z,99115.00
2023-02-21T00:44:44.240Z,99122.00
2023-02-21T00:47:29.548Z,99108.63
2023-02-21T00:50:16.282Z,99122.84
2023-02-21T00:53:01.456Z,99118.69
2023-02-21T00:55:46.639Z,99132.72
2023-02-21T00:58:31.786Z,99127.34
2023-02-21T01:01:17.799Z,99124.03
2023-02-21T01:04:03.692Z,99138.06
2023-02-21T01:06:50.557Z,99130.72
2023-02-21T01:09:35.685Z,99148.78
2023-02-21T01:12:21.002Z,99138.06
2023-02-21T01:15:06.519Z,99150.81
2023-02-21T01:17:51.908Z,99152.47
2023-02-21T01:20:37.369Z,99150.31
2023-02-21T01:23:24.142Z,99150.47
2023-02-21T01:26:09.467Z,99181.75
2023-02-21T01:28:55.265Z,99176.38
2023-02-21T01:31:40.526Z,99162.25
2023-02-21T01:34:26.262Z,99188.94
2023-02-21T01:37:11.836Z,99200.66
2023-02-21T01:39:58.561Z,99187.94
2023-02-21T01:42:45.833Z,99175.53
2023-02-21T01:46:07.827Z,99182.59
2023-02-21T01:48:54.331Z,99196.97
2023-02-21T01:51:44.870Z,99213.88
2023-02-21T01:54:31.236Z,99207.66
2023-02-21T01:57:21.616Z,99218.38
2023-02-21T02:00:08.071Z,99172.25
2023-02-21T02:03:00.358Z,99219.38
2023-02-21T02:05:46.839Z,99223.72
2023-02-21T02:08:34.592Z,99229.06
2023-02-21T02:11:28.453Z,99245.13
2023-02-21T02:14:18.965Z,99234.28
2023-02-21T02:16:53.317Z,99250.50
2023-02-21T02:19:48.645Z,99253.16
2023-02-21T02:22:37.661Z,99250.50
2023-02-21T02:25:20.021Z,99256.69
2023-02-21T02:28:17.794Z,99264.72
2023-02-21T02:31:27.540Z,99275.44
2023-02-21T02:34:41.494Z,99278.97
2023-02-21T02:37:18.462Z,99282.63
2023-02-21T02:39:52.754Z,99274.09
2023-02-21T02:42:34.569Z,99284.31
2023-02-21T02:45:07.195Z,99280.78
2023-02-21T02:47:38.676Z,99291.66
2023-02-21T02:50:10.810Z,99299.34
2023-02-21T02:52:39.335Z,99311.09
2023-02-21T02:55:26.445Z,99319.94
2023-02-21T02:57:54.826Z,99317.25
2023-02-21T03:00:23.582Z,99329.81
2023-02-21T03:03:09.649Z,99337.00
2023-02-21T03:05:50.096Z,99340.34
2023-02-21T03:08:28.882Z,99339.50
2023-02-21T03:11:04.734Z,99347.72
2023-02-21T03:13:39.331Z,99308.72
2023-02-21T03:16:15.381Z,99348.56
2023-02-21T03:18:47.324Z,99365.44
2023-02-21T03:21:21.138Z,99372.47
2023-02-21T03:23:52.732Z,99387.69
2023-02-21T03:26:21.277Z,99376.81
2023-02-21T03:28:51.309Z,99379.00
2023-02-21T03:31:23.332Z,99389.38
2023-02-21T03:33:51.344Z,99390.22
2023-02-21T03:36:21.452Z,99396.41
2023-02-21T03:38:49.544Z,99403.44
2023-02-21T03:41:17.675Z,99409.13
2023-02-21T03:43:46.029Z,99407.13
2023-02-21T03:46:14.112Z,99420.34
2023-02-21T03:48:42.164Z,99424.00
2023-02-21T03:51:10.137Z,99430.19
2023-02-21T03:53:39.558Z,99430.19
2023-02-21T03:56:08.227Z,99440.91
2023-02-21T03:58:38.279Z,99451.63
2023-02-21T04:01:06.757Z,99451.63
2023-02-21T04:03:34.834Z,99473.03
2023-02-21T04:06:04.101Z,99464.66
2023-02-21T04:08:32.152Z,99469.34
2023-02-21T04:11:01.633Z,99487.28
2023-02-21T04:13:29.726Z,99489.09
2023-02-21T04:15:57.761Z,99492.78
2023-02-21T04:18:25.866Z,99499.81
2023-02-21T04:20:53.922Z,99491.78
2023-02-21T04:23:24.009Z,99506.81
2023-02-21T04:25:52.226Z,99509.03
2023-02-21T04:28:21.665Z,99519.56
2023-02-21T04:30:49.912Z,99518.72
2023-02-21T04:33:18.259Z,99518.19
2023-02-21T04:35:46.396Z,99524.91
2023-02-21T04:38:14.539Z,99534.63
2023-02-21T04:40:42.539Z,99509.84
2023-02-21T04:43:10.586Z,99537.28
2023-02-21T04:45:40.171Z,99544.31
2023-02-21T04:48:08.241Z,99538.13
2023-02-21T04:50:36.665Z,99541.63
2023-02-21T04:53:04.791Z,99544.31
2023-02-21T04:55:32.830Z,99555.03
2023-02-21T04:58:00.975Z,99552.50
2023-02-21T05:00:29.146Z,99526.88
2023-02-21T05:02:58.914Z,99564.06
2023-02-21T05:05:26.968Z,99569.41
2023-02-21T05:07:54.981Z,99567.75
2023-02-21T05:10:27.016Z,99578.47
2023-02-21T05:12:59.224Z,99557.50
2023-02-21T05:15:27.281Z,99590.84
2023-02-21T05:17:55.308Z,99589.19
2023-02-21T05:20:24.816Z,99598.88
2023-02-21T05:22:54.504Z,99608.56
2023-02-21T05:25:24.968Z,99602.19
2023-02-21T05:27:54.117Z,99617.63
2023-02-21T05:30:24.137Z,99621.31
2023-02-21T05:32:52.369Z,99616.59
2023-02-21T05:35:20.570Z,99628.31
2023-02-21T05:37:50.018Z,99630.31
2023-02-21T05:40:18.488Z,99620.25
2023-02-21T05:42:46.693Z,99637.38
2023-02-21T05:45:14.798Z,99646.38
2023-02-21T05:47:42.882Z,99661.31
2023-02-21T05:50:11.006Z,99665.81
2023-02-21T05:52:39.067Z,99667.47
2023-02-21T05:55:09.065Z,99683.53
2023-02-21T05:57:39.974Z,99693.44
2023-02-21T06:00:09.313Z,99705.97
2023-02-21T06:02:37.385Z,99710.63
2023-02-21T06:05:05.981Z,99708.97
2023-02-21T06:07:34.042Z,99696.16
2023-02-21T06:10:02.126Z,99712.66
2023-02-21T06:12:31.644Z,99719.69
2023-02-21T06:14:59.845Z,99722.50
2023-02-21T06:17:27.960Z,99730.38
2023-02-21T06:19:57.942Z,99679.19
2023-02-21T06:22:26.059Z,99741.09
2023-02-21T06:24:54.123Z,99740.25
2023-02-21T06:27:24.504Z,99719.25
2023-02-21T06:29:53.966Z,99754.47
2023-02-21T06:32:22.038Z,99691.72
2023-02-21T06:34:50.105Z,99755.16
2023-02-21T06:37:20.084Z,99758.50
2023-02-21T06:39:48.205Z,99767.56
2023-02-21T06:42:17.235Z,99773.75
2023-02-21T06:44:46.127Z,99768.19
2023-02-21T06:47:16.149Z,99779.94
2023-02-21T06:49:44.880Z,99780.25
2023-02-21T06:52:13.014Z,99785.28
2023-02-21T06:54:41.100Z,99792.34
2023-02-21T06:57:09.254Z,99795.03
2023-02-21T06:59:37.281Z,99795.03
2023-02-21T07:02:05.609Z,99766.06
2023-02-21T07:04:35.072Z,99812.06
2023-02-21T07:07:03.405Z,99826.84
2023-02-21T07:09:31.497Z,99825.84
2023-02-21T07:11:59.670Z,99836.53
2023-02-21T07:14:27.948Z,99840.22
2023-02-21T07:16:56.099Z,99852.63
2023-02-21T07:19:24.115Z,99833.66
2023-02-21T07:21:53.647Z,99865.31
2023-02-21T07:24:21.740Z,99864.63
2023-02-21T07:26:50.503Z,99865.63
2023-02-21T07:29:18.685Z,99872.66
2023-02-21T07:31:46.996Z,99822.88
2023-02-21T07:34:15.284Z,99883.06
2023-02-21T07:36:43.575Z,99898.13
2023-02-21T07:39:13.298Z,99911.53
2023-02-21T07:41:41.455Z,99916.88
2023-02-21T07:44:10.224Z,99930.28
2023-02-21T07:46:38.337Z,99932.94
2023-02-21T07:49:06.429Z,99933.09
2023-02-21T07:51:34.553Z,99939.97
2023-02-21T07:54:02.625Z,99954.06
2023-02-21T07:56:32.080Z,99952.38
2023-02-21T07:59:00.162Z,99957.75
2023-02-21T08:01:28.752Z,99959.41
2023-02-21T08:03:56.741Z,99978.16
2023-02-21T08:06:24.804Z,99970.44
2023-02-21T08:08:52.812Z,99980.16
2023-02-21T08:11:20.995Z,99984.53
2023-02-21T08:13:50.343Z,99979.16
2023-02-21T08:16:18.365Z,99987.22
2023-02-21T08:18:50.325Z,99991.56
2023-02-21T08:21:18.745Z,99993.22
2023-02-21T08:23:46.740Z,99993.22
2023-02-21T08:26:15.100Z,100003.94
2023-02-21T08:28:43.199Z,99988.03
2023-02-21T08:31:12.789Z,100018.34
2023-02-21T08:33:41.056Z,100022.84
2023-02-21T08:36:09.592Z,100032.44
2023-02-21T08:38:37.847Z,100037.78
2023-02-21T08:41:06.329Z,99990.00
2023-02-21T08:43:34.692Z,100031.41
2023-02-21T08:46:03.016Z,100034.09
2023-02-21T08:48:32.456Z,100043.13
2023-02-21T08:51:00.436Z,100041.44
2023-02-21T08:53:28.412Z,100038.59
2023-02-21T08:55:56.370Z,100048.50
2023-02-21T08:58:24.531Z,100046.78
2023-02-21T09:00:52.748Z,100050.16
2023-02-21T09:03:20.846Z,100053.00
2023-02-21T09:05:50.433Z,100057.50
2023-02-21T09:08:20.937Z,100068.22
2023-02-21T10:13:14.143Z,100177.69
2023-02-21T10:15:45.968Z,100192.09
2023-02-21T10:18:29.456Z,100200.81
2023-02-21T10:21:01.332Z,100179.47
2023-02-21T10:23:35.232Z,100218.56
2023-02-21T10:26:09.592Z,100215.88
2023-02-21T10:28:40.230Z,100222.53
2023-02-21T10:31:12.946Z,100213.78
2023-02-21T10:33:41.677Z,100223.41
2023-02-21T10:36:14.595Z,100230.16
2023-02-21T10:38:49.375Z,100246.22
2023-02-21T10:41:18.815Z,100249.88
2023-02-21T10:43:52.242Z,100250.69
2023-02-21T10:46:26.742Z,100252.94
2023-02-21T10:49:00.876Z,100257.78
2023-02-21T10:51:33.455Z,100260.59
2023-02-21T10:54:21.314Z,100269.59
2023-02-21T10:56:50.419Z,100231.63
2023-02-21T10:59:26.184Z,100274.66
2023-02-21T11:01:56.394Z,100282.97
2023-02-21T11:04:32.077Z,100288.63
2023-02-21T11:07:05.329Z,100294.69
2023-02-21T11:09:37.793Z,100303.72
2023-02-21T11:12:20.351Z,100318.63
2023-02-21T11:15:17.150Z,100323.41
2023-02-21T11:17:47.119Z,100319.78
2023-02-21T11:20:23.615Z,100323.41
2023-02-21T11:22:52.816Z,100332.44
2023-02-21T11:25:27.002Z,100337.78
2023-02-21T11:28:03.957Z,100345.81
2023-02-21T11:30:35.929Z,100342.28
2023-02-21T11:33:06.430Z,100347.94
2023-02-21T11:35:37.220Z,100351.31
2023-02-21T11:38:07.657Z,100351.72
2023-02-21T11:40:44.082Z,100357.78
2023-02-21T11:43:21.925Z,100355.81
2023-02-21T11:46:11.868Z,100355.53
2023-02-21T11:48:46.310Z,100357.22
2023-02-21T11:51:27.241Z,100358.91
2023-02-21T11:53:55.607Z,100361.44
2023-02-21T11:56:35.527Z,100369.31
2023-02-21T11:59:14.066Z,100381.75
2023-02-21T12:01:50.854Z,100387.09
2023-02-21T12:04:37.939Z,100401.19
2023-02-21T12:07:18.185Z,100403.84
2023-02-21T12:09:56.414Z,100408.25
2023-02-21T12:12:35.197Z,100404.72
2023-02-21T12:15:13.502Z,100399.50
2023-02-21T12:17:59.271Z,100412.47
2023-02-21T12:20:44.471Z,100411.59
2023-02-21T12:23:20.108Z,100417.97
2023-02-21T12:26:02.966Z,100426.00
2023-02-21T12:28:49.368Z,100417.25
2023-02-21T12:31:31.372Z,100422.31
2023-02-21T12:34:13.628Z,100422.31
2023-02-21T12:37:00.897Z,100435.31
2023-02-21T12:39:42.281Z,100438.38
2023-02-21T12:42:42.703Z,100456.16
2023-02-21T12:45:28.551Z,100420.06
2023-02-21T12:48:03.934Z,100473.19
2023-02-21T12:50:38.187Z,100469.56
2023-02-21T12:53:12.298Z,100472.25
2023-02-21T12:55:44.036Z,100479.28
2023-02-21T12:58:20.263Z,100473.91
2023-02-21T13:00:53.944Z,100484.63
2023-02-21T13:03:37.032Z,100491.94
2023-02-21T13:06:15.457Z,100502.94
2023-02-21T13:08:55.410Z,100495.06
2023-02-21T13:11:28.356Z,100513.94
2023-02-21T13:13:57.714Z,100517.59
2023-02-21T13:16:26.988Z,100522.69
2023-02-21T13:19:00.441Z,100512.53
2023-02-21T13:21:45.587Z,100485.47
2023-02-21T13:24:49.300Z,100530.59
2023-02-21T13:27:47.925Z,100537.75
2023-02-21T13:30:22.705Z,100552.16
2023-02-21T13:32:56.679Z,100544.13
2023-02-21T13:35:32.260Z,100544.25
2023-02-21T13:38:04.020Z,100554.81
2023-02-21T13:40:38.623Z,100556.50
2023-02-21T13:43:12.384Z,100549.47
2023-02-21T13:45:41.438Z,100560.47
2023-02-21T13:48:22.853Z,100564.81
2023-02-21T13:50:53.433Z,100563.84
2023-02-21T13:53:24.516Z,100534.47
2023-02-21T13:56:19.206Z,100577.25
2023-02-21T13:58:48.689Z,100574.56
2023-02-21T14:01:47.977Z,100579.94
2023-02-21T14:05:04.032Z,100582.31
2023-02-21T14:07:58.077Z,100585.00
2023-02-21T14:10:34.126Z,100585.97
2023-02-21T14:13:05.579Z,100594.00
2023-02-21T14:15:43.813Z,100588.66
2023-02-21T14:18:25.944Z,100599.34
2023-02-21T14:20:56.355Z,100595.00
2023-02-21T14:23:26.565Z,100599.34
2023-02-21T14:26:01.296Z,100605.56
2023-02-21T14:29:05.718Z,100604.72
2023-02-21T14:31:50.321Z,100618.09
2023-02-21T14:34:25.368Z,100623.31
2023-02-21T14:36:55.806Z,100630.53
2023-02-21T14:39:24.804Z,100619.81
2023-02-21T14:42:10.268Z,100623.31
2023-02-21T14:44:51.975Z,100617.16
2023-02-21T14:47:49.995Z,100628.69
2023-02-21T14:50:32.399Z,100632.94
2023-02-21T14:53:39.187Z,100638.28
2023-02-21T14:56:44.832Z,100648.41
2023-02-21T14:59:43.511Z,100639.53
2023-02-21T15:02:29.120Z,100647.56
2023-02-21T15:05:01.563Z,100643.19
2023-02-21T15:07:36.589Z,100651.25
2023-02-21T15:10:17.811Z,100656.59
2023-02-21T15:12:49.675Z,100665.63
2023-02-21T15:15:23.155Z,100676.06
2023-02-21T15:18:05.006Z,100686.78
2023-02-21T15:20:35.019Z,100689.47
2023-02-21T15:23:08.743Z,100697.50
2023-02-21T15:25:37.147Z,100697.50
2023-02-21T15:28:16.800Z,100708.19
2023-02-21T15:30:58.160Z,100704.53
2023-02-21T15:33:28.081Z,100721.59
2023-02-21T15:35:58.359Z,100721.59
2023-02-21T15:38:32.467Z,100729.63
2023-02-21T15:41:06.852Z,100737.66
2023-02-21T15:43:44.615Z,100736.69
2023-02-21T15:46:19.984Z,100740.34
2023-02-21T15:48:49.542Z,100751.06
2023-02-21T15:51:18.418Z,100752.75
2023-02-21T15:54:24.476Z,100754.44
2023-02-21T15:57:03.636Z,100758.09
2023-02-21T15:59:32.681Z,100754.69
2023-02-21T16:02:25.224Z,100750.13
2023-02-21T16:04:54.367Z,100769.94
2023-02-21T16:07:30.044Z,100766.41
2023-02-21T16:10:04.538Z,100771.03
2023-02-21T16:12:37.303Z,100781.06
2023-02-21T16:15:08.499Z,100789.91
2023-02-21T16:17:41.080Z,100795.13
2023-02-21T16:20:18.016Z,100793.31
2023-02-21T16:23:06.707Z,100795.88
2023-02-21T16:25:35.858Z,100794.19
2023-02-21T16:28:12.760Z,100790.50
2023-02-21T16:30:40.896Z,100794.19
2023-02-21T16:33:14.571Z,100799.53
2023-02-21T16:35:43.295Z,100802.22
2023-02-21T16:38:15.226Z,100799.53
2023-02-21T16:40:43.295Z,100794.19
2023-02-21T16:43:18.392Z,100805.16
2023-02-21T16:45:48.515Z,100791.91
2023-02-21T16:48:21.840Z,100805.16
2023-02-21T16:50:50.960Z,100805.16
2023-02-21T16:53:19.856Z,100803.69
2023-02-21T16:55:48.785Z,100814.41
2023-02-21T16:58:29.362Z,100818.94
2023-02-21T17:00:59.589Z,100822.72
2023-02-21T17:03:29.499Z,100828.06
2023-02-21T17:05:59.463Z,100840.63
2023-02-21T17:08:28.502Z,100843.44
2023-02-21T17:10:57.511Z,100837.22
2023-02-21T17:13:25.819Z,100840.03
2023-02-21T17:15:54.747Z,100850.72
2023-02-21T17:18:23.321Z,100851.72
2023-02-21T17:20:52.876Z,100854.41
2023-02-21T17:23:20.944Z,100853.53
2023-02-21T17:25:49.244Z,100853.53
2023-02-21T17:28:17.404Z,100845.63
2023-02-21T17:30:45.672Z,100852.69
2023-02-21T17:33:13.770Z,100856.47
2023-02-21T17:35:42.230Z,100858.03
2023-02-21T17:38:11.938Z,100861.72
2023-02-21T17:40:40.173Z,100866.19
2023-02-21T17:43:09.146Z,100879.72
2023-02-21T17:45:37.797Z,100880.56
2023-02-21T17:48:06.576Z,100886.78
2023-02-21T17:50:34.741Z,100886.78
2023-02-21T17:53:02.933Z,100885.06
2023-02-21T17:55:33.336Z,100889.59
2023-02-21T17:58:02.131Z,100887.88
2023-02-21T18:00:34.212Z,100892.41
2023-02-21T18:03:04.430Z,100905.78
2023-02-21T18:05:33.149Z,100899.56
2023-02-21T18:08:01.268Z,100902.38
2023-02-21T18:10:29.418Z,100903.38
2023-02-21T18:12:59.092Z,100909.44
2023-02-21T18:15:29.158Z,100917.47
2023-02-21T18:17:58.581Z,100928.16
2023-02-21T18:20:26.671Z,100922.81
2023-02-21T18:22:54.822Z,100921.13
2023-02-21T18:25:24.291Z,100930.13
2023-02-21T18:27:52.874Z,100919.44
2023-02-21T18:30:23.134Z,100920.25
2023-02-21T18:32:51.267Z,100917.72
2023-02-21T18:35:20.435Z,100929.53
2023-02-21T18:37:48.952Z,100932.09
2023-02-21T18:40:18.545Z,100933.91
2023-02-21T18:42:47.822Z,100933.78
2023-02-21T18:45:16.118Z,100937.44
2023-02-21T18:47:45.612Z,100939.13
2023-02-21T18:50:13.902Z,100941.94
2023-02-21T18:52:41.989Z,100937.44
2023-02-21T18:55:12.745Z,100938.31
2023-02-21T18:57:40.839Z,100945.47
2023-02-21T19:00:10.646Z,100940.13
2023-02-21T19:02:38.934Z,100948.16
2023-02-21T19:05:08.917Z,100955.47
2023-02-21T19:07:37.912Z,100957.28
2023-02-21T19:10:06.761Z,100943.09
2023-02-21T19:12:34.869Z,100961.09
2023-02-21T19:15:03.076Z,100954.63
2023-02-21T19:17:31.179Z,100953.75
2023-02-21T19:19:59.435Z,100958.16
2023-02-21T19:22:28.939Z,100964.47
2023-02-21T19:24:57.526Z,100964.72
2023-02-21T19:27:25.810Z,100954.88
2023-02-21T19:29:53.980Z,100957.41
2023-02-21T19:32:22.263Z,100957.41
2023-02-21T19:34:50.603Z,100956.56
2023-02-21T19:37:19.505Z,100967.28
2023-02-21T19:39:49.118Z,100961.09
2023-02-21T19:42:17.197Z,100964.72
2023-02-21T19:44:45.217Z,100970.06
2023-02-21T19:47:13.459Z,100970.06
2023-02-21T19:49:45.951Z,100970.31
2023-02-21T19:52:14.185Z,100978.09
2023-02-21T19:54:42.201Z,100982.50
2023-02-21T19:57:11.637Z,100982.50
2023-02-21T19:59:39.667Z,100986.13
2023-02-21T20:02:08.186Z,100986.88
2023-02-21T20:04:36.419Z,100984.19
2023-02-21T20:07:04.986Z,100987.84
2023-02-21T20:09:33.291Z,100992.34
2023-02-21T20:12:01.505Z,100990.66
2023-02-21T20:14:31.042Z,100991.50
2023-02-21T20:16:59.396Z,100989.81
2023-02-21T20:19:30.134Z,100992.47
2023-02-21T20:21:58.574Z,100997.81
2023-02-21T20:24:26.635Z,100994.28
2023-02-21T20:26:55.408Z,100993.72
2023-02-21T20:29:25.694Z,101001.50
2023-02-21T20:31:55.836Z,101013.91
2023-02-21T20:34:24.915Z,100971.81
2023-02-21T20:36:52.981Z,101005.84
2023-02-21T20:39:28.351Z,101020.22
2023-02-21T20:41:57.539Z,100973.78
2023-02-21T20:44:26.610Z,100980.84
2023-02-21T20:46:57.535Z,101023.88
2023-02-21T20:49:25.588Z,101023.03
2023-02-21T20:51:53.847Z,100986.66
2023-02-21T20:54:22.620Z,101032.03
2023-02-21T20:56:52.208Z,101039.94
2023-02-21T20:59:23.410Z,101038.72
2023-02-21T21:01:52.086Z,101050.63
2023-02-21T21:04:26.589Z,101050.63
2023-02-21T21:06:57.512Z,101050.63
2023-02-21T21:09:34.565Z,101056.84
2023-02-21T21:12:03.531Z,101048.94
2023-02-21T21:14:33.277Z,101054.28
2023-02-21T21:17:02.253Z,101054.28
2023-02-21T21:19:34.304Z,101054.28
2023-02-21T21:22:02.668Z,101066.69
2023-02-21T21:24:32.199Z,101054.28
2023-02-21T21:27:06.306Z,101052.59
2023-02-21T21:29:36.766Z,101052.59
2023-02-21T21:32:08.756Z,101058.78
2023-02-21T21:34:42.196Z,101054.78
2023-02-21T21:37:11.295Z,101059.66
2023-02-21T21:39:39.311Z,101070.34
2023-02-21T21:42:09.829Z,101056.47
2023-02-21T21:44:39.756Z,101068.66
2023-02-21T21:47:08.081Z,101037.53
2023-02-21T21:49:37.496Z,101069.63
2023-02-21T21:52:06.571Z,101067.19
2023-02-21T21:54:36.326Z,101031.66
2023-02-21T21:57:06.423Z,101065.38
2023-02-21T21:59:38.122Z,101077.91
2023-02-21T22:02:06.163Z,101068.66
2023-02-21T22:04:34.494Z,101073.78
2023-02-21T22:07:04.870Z,101077.16
2023-02-21T22:09:32.989Z,101078.13
2023-02-21T22:12:01.274Z,101084.47
2023-02-21T22:14:29.803Z,101088.09
2023-02-21T22:16:58.027Z,101077.41
2023-02-21T22:19:27.457Z,101076.56
2023-02-21T22:21:56.923Z,101088.09
2023-02-21T22:24:26.682Z,101091.78
2023-02-21T22:26:56.268Z,101097.13
2023-02-21T22:29:24.307Z,101096.13
2023-02-21T22:31:52.617Z,101091.78
2023-02-21T22:34:24.284Z,101096.25
2023-02-21T22:36:53.208Z,101090.09
2023-02-21T22:39:21.560Z,101095.44
2023-02-21T22:41:51.541Z,101097.38
2023-02-21T22:44:20.318Z,101096.38
2023-02-21T22:46:58.397Z,101091.03
2023-02-21T22:49:27.153Z,101092.88
2023-02-21T22:51:57.691Z,101084.97
2023-02-21T22:54:26.048Z,101086.66
2023-02-21T22:57:00.881Z,101090.09
2023-02-21T22:59:28.888Z,101084.09
2023-02-21T23:01:58.521Z,101085.81
2023-02-21T23:04:26.940Z,101085.81
2023-02-21T23:06:55.648Z,101073.03
2023-02-21T23:09:24.757Z,101086.66
2023-02-21T23:11:56.622Z,101088.34
2023-02-21T23:14:25.456Z,101088.34
2023-02-21T23:16:57.393Z,101081.56
2023-02-21T23:19:25.951Z,101095.69
2023-02-21T23:21:54.834Z,101085.22
2023-02-21T23:24:23.867Z,101097.38
2023-02-21T23:26:54.824Z,101093.72
2023-02-21T23:29:26.679Z,101094.69
2023-02-21T23:31:57.959Z,101100.03
2023-02-21T23:34:40.401Z,101086.16
2023-02-21T23:37:09.404Z,101095.69
2023-02-21T23:39:37.612Z,101095.69
2023-02-21T23:42:05.838Z,101094.81
2023-02-21T23:44:36.332Z,101095.69
2023-02-21T23:47:06.178Z,101102.72
2023-02-21T23:49:34.367Z,101106.38
2023-02-21T23:52:02.450Z,101101.28
2023-02-21T23:54:30.484Z,101093.94
2023-02-21T23:57:00.730Z,101101.03
2023-02-21T23:59:29.301Z,101106.38
